sensor_id;sensor_type;location;lat;lon;timestamp;pressure;altitude;pressure_sealevel;temperature;humidity
21433;BME280;18592;49.708;10.900;2022-12-07T00:01:29;98615.50;;;7.68;60.62
21433;BME280;18592;49.708;10.900;2022-12-07T00:03:31;98609.00;;;7.69;60.74
21433;BME280;18592;49.708;10.900;2022-12-07T00:05:32;98608.16;;;7.69;60.77
21433;BME280;18592;49.708;10.900;2022-12-07T00:07:34;98608.16;;;7.69;60.72
21433;BME280;18592;49.708;10.900;2022-12-07T00:09:36;98605.44;;;7.69;60.71
21433;BME280;18592;49.708;10.900;2022-12-07T00:11:37;98605.69;;;7.67;60.64
21433;BME280;18592;49.708;10.900;2022-12-07T00:13:41;98603.81;;;7.68;60.77
21433;BME280;18592;49.708;10.900;2022-12-07T00:15:43;98605.44;;;7.69;60.82
21433;BME280;18592;49.708;10.900;2022-12-07T00:17:45;98599.22;;;7.68;60.88
21433;BME280;18592;49.708;10.900;2022-12-07T00:19:47;98603.81;;;7.68;60.44
21433;BME280;18592;49.708;10.900;2022-12-07T00:21:48;98593.78;;;7.68;60.73
21433;BME280;18592;49.708;10.900;2022-12-07T00:23:51;98599.81;;;7.71;60.51
21433;BME280;18592;49.708;10.900;2022-12-07T00:25:53;98603.56;;;7.69;60.65
21433;BME280;18592;49.708;10.900;2022-12-07T00:27:54;98596.25;;;7.70;60.61
21433;BME280;18592;49.708;10.900;2022-12-07T00:29:58;98593.56;;;7.70;60.60
21433;BME280;18592;49.708;10.900;2022-12-07T00:32:07;98592.13;;;7.67;60.64
21433;BME280;18592;49.708;10.900;2022-12-07T00:34:17;98592.59;;;7.64;60.76
21433;BME280;18592;49.708;10.900;2022-12-07T00:36:21;98589.88;;;7.64;60.61
21433;BME280;18592;49.708;10.900;2022-12-07T00:38:30;98590.72;;;7.65;60.64
21433;BME280;18592;49.708;10.900;2022-12-07T00:40:32;98592.84;;;7.63;60.69
21433;BME280;18592;49.708;10.900;2022-12-07T00:42:33;98597.19;;;7.64;60.70
21433;BME280;18592;49.708;10.900;2022-12-07T00:44:35;98590.94;;;7.63;60.57
21433;BME280;18592;49.708;10.900;2022-12-07T00:46:37;98585.28;;;7.65;60.57
21433;BME280;18592;49.708;10.900;2022-12-07T00:48:39;98583.63;;;7.64;60.52
21433;BME280;18592;49.708;10.900;2022-12-07T00:50:40;98585.75;;;7.62;60.58
21433;BME280;18592;49.708;10.900;2022-12-07T00:52:42;98585.53;;;7.63;60.63
21433;BME280;18592;49.708;10.900;2022-12-07T00:54:46;98584.44;;;7.64;60.57
21433;BME280;18592;49.708;10.900;2022-12-07T00:56:48;98584.91;;;7.61;60.72
21433;BME280;18592;49.708;10.900;2022-12-07T00:59:03;98587.63;;;7.61;60.42
21433;BME280;18592;49.708;10.900;2022-12-07T01:01:07;98585.75;;;7.62;60.73
21433;BME280;18592;49.708;10.900;2022-12-07T01:03:11;98588.44;;;7.62;60.46
21433;BME280;18592;49.708;10.900;2022-12-07T01:05:16;98592.25;;;7.61;60.75
21433;BME280;18592;49.708;10.900;2022-12-07T01:07:17;98585.16;;;7.60;60.50
21433;BME280;18592;49.708;10.900;2022-12-07T01:09:22;98585.97;;;7.60;60.70
21433;BME280;18592;49.708;10.900;2022-12-07T01:11:26;98595.16;;;7.59;60.72
21433;BME280;18592;49.708;10.900;2022-12-07T01:13:28;98588.09;;;7.58;60.71
21433;BME280;18592;49.708;10.900;2022-12-07T01:15:30;98582.91;;;7.57;60.55
21433;BME280;18592;49.708;10.900;2022-12-07T01:17:32;98581.84;;;7.58;60.64
21433;BME280;18592;49.708;10.900;2022-12-07T01:19:33;98597.03;;;7.59;60.73
21433;BME280;18592;49.708;10.900;2022-12-07T01:21:35;98585.59;;;7.57;60.67
21433;BME280;18592;49.708;10.900;2022-12-07T01:23:39;98583.13;;;7.55;60.76
21433;BME280;18592;49.708;10.900;2022-12-07T01:25:41;98581.00;;;7.57;60.75
21433;BME280;18592;49.708;10.900;2022-12-07T01:27:43;98578.53;;;7.56;60.80
21433;BME280;18592;49.708;10.900;2022-12-07T01:29:45;98582.31;;;7.55;60.65
21433;BME280;18592;49.708;10.900;2022-12-07T01:31:48;98585.84;;;7.55;60.70
21433;BME280;18592;49.708;10.900;2022-12-07T01:33:53;98589.59;;;7.54;60.54
21433;BME280;18592;49.708;10.900;2022-12-07T01:36:00;98589.84;;;7.53;60.62
21433;BME280;18592;49.708;10.900;2022-12-07T01:38:05;98584.44;;;7.53;60.63
21433;BME280;18592;49.708;10.900;2022-12-07T01:40:07;98590.69;;;7.53;60.68
21433;BME280;18592;49.708;10.900;2022-12-07T01:42:10;98588.19;;;7.52;60.76
21433;BME280;18592;49.708;10.900;2022-12-07T01:44:26;98587.34;;;7.51;60.63
21433;BME280;18592;49.708;10.900;2022-12-07T01:46:29;98598.19;;;7.51;60.57
21433;BME280;18592;49.708;10.900;2022-12-07T01:48:38;98594.06;;;7.49;60.44
21433;BME280;18592;49.708;10.900;2022-12-07T01:50:43;98590.06;;;7.51;61.20
21433;BME280;18592;49.708;10.900;2022-12-07T01:52:51;98590.06;;;7.51;60.65
21433;BME280;18592;49.708;10.900;2022-12-07T01:55:02;98587.59;;;7.50;60.41
21433;BME280;18592;49.708;10.900;2022-12-07T01:57:06;98585.47;;;7.52;60.65
21433;BME280;18592;49.708;10.900;2022-12-07T01:59:09;98588.44;;;7.50;60.75
21433;BME280;18592;49.708;10.900;2022-12-07T02:01:11;98590.31;;;7.50;60.49
21433;BME280;18592;49.708;10.900;2022-12-07T02:03:21;98583.00;;;7.50;60.58
21433;BME280;18592;49.708;10.900;2022-12-07T02:05:25;98577.78;;;7.49;60.56
21433;BME280;18592;49.708;10.900;2022-12-07T02:07:28;98584.06;;;7.49;60.65
21433;BME280;18592;49.708;10.900;2022-12-07T02:09:30;98578.63;;;7.49;60.55
21433;BME280;18592;49.708;10.900;2022-12-07T02:11:35;98572.38;;;7.49;60.49
21433;BME280;18592;49.708;10.900;2022-12-07T02:13:39;98568.84;;;7.48;60.49
21433;BME280;18592;49.708;10.900;2022-12-07T02:21:00;98556.59;;;7.46;60.23
21433;BME280;18592;49.708;10.900;2022-12-07T02:25:46;98544.53;;;7.42;60.44
21433;BME280;18592;49.708;10.900;2022-12-07T02:28:26;98542.28;;;7.39;60.38
21433;BME280;18592;49.708;10.900;2022-12-07T02:30:32;98537.94;;;7.38;60.47
21433;BME280;18592;49.708;10.900;2022-12-07T02:32:51;98534.63;;;7.36;60.62
21433;BME280;18592;49.708;10.900;2022-12-07T02:34:59;98537.34;;;7.36;60.49
21433;BME280;18592;49.708;10.900;2022-12-07T02:37:19;98537.34;;;7.36;60.29
21433;BME280;18592;49.708;10.900;2022-12-07T02:39:32;98548.38;;;7.34;60.19
21433;BME280;18592;49.708;10.900;2022-12-07T02:41:42;98554.06;;;7.33;60.29
21433;BME280;18592;49.708;10.900;2022-12-07T02:43:53;98551.34;;;7.33;60.14
21433;BME280;18592;49.708;10.900;2022-12-07T02:46:00;98548.03;;;7.31;60.06
21433;BME280;18592;49.708;10.900;2022-12-07T02:48:05;98544.25;;;7.32;60.24
21433;BME280;18592;49.708;10.900;2022-12-07T02:50:08;98536.56;;;7.29;60.12
21433;BME280;18592;49.708;10.900;2022-12-07T02:52:10;98531.66;;;7.26;60.32
21433;BME280;18592;49.708;10.900;2022-12-07T02:54:14;98528.94;;;7.26;60.16
21433;BME280;18592;49.708;10.900;2022-12-07T02:56:32;98535.16;;;7.26;60.08
21433;BME280;18592;49.708;10.900;2022-12-07T02:58:49;98535.03;;;7.21;60.05
21433;BME280;18592;49.708;10.900;2022-12-07T03:03:23;98548.22;;;7.18;60.22
21433;BME280;18592;49.708;10.900;2022-12-07T03:06:31;98561.97;;;7.16;60.21
21433;BME280;18592;49.708;10.900;2022-12-07T03:10:28;98553.25;;;7.14;60.22
21433;BME280;18592;49.708;10.900;2022-12-07T03:15:00;98528.28;;;7.12;60.19
21433;BME280;18592;49.708;10.900;2022-12-07T03:17:12;98525.81;;;7.11;60.30
21433;BME280;18592;49.708;10.900;2022-12-07T03:19:18;98528.53;;;7.11;60.33
21433;BME280;18592;49.708;10.900;2022-12-07T03:21:26;98541.00;;;7.12;60.27
21433;BME280;18592;49.708;10.900;2022-12-07T03:23:30;98550.41;;;7.09;60.31
21433;BME280;18592;49.708;10.900;2022-12-07T03:25:39;98552.53;;;7.07;60.20
21433;BME280;18592;49.708;10.900;2022-12-07T03:28:03;98550.06;;;7.06;60.37
21433;BME280;18592;49.708;10.900;2022-12-07T03:30:10;98541.09;;;7.05;60.25
21433;BME280;18592;49.708;10.900;2022-12-07T03:34:34;98530.47;;;7.03;60.38
21433;BME280;18592;49.708;10.900;2022-12-07T03:37:07;98530.94;;;7.00;60.29
21433;BME280;18592;49.708;10.900;2022-12-07T03:39:30;98523.88;;;6.99;60.12
21433;BME280;18592;49.708;10.900;2022-12-07T03:41:34;98523.03;;;6.99;60.33
21433;BME280;18592;49.708;10.900;2022-12-07T03:43:45;98533.03;;;6.98;60.27
21433;BME280;18592;49.708;10.900;2022-12-07T03:46:21;98531.84;;;6.94;60.32
21433;BME280;18592;49.708;10.900;2022-12-07T03:48:34;98529.75;;;6.96;60.31
21433;BME280;18592;49.708;10.900;2022-12-07T03:50:50;98531.84;;;6.94;60.29
21433;BME280;18592;49.708;10.900;2022-12-07T03:53:07;98526.44;;;6.94;60.25
21433;BME280;18592;49.708;10.900;2022-12-07T03:55:29;98536.44;;;6.94;60.22
21433;BME280;18592;49.708;10.900;2022-12-07T03:57:33;98524.78;;;6.93;60.23
21433;BME280;18592;49.708;10.900;2022-12-07T03:59:37;98525.25;;;6.90;60.31
21433;BME280;18592;49.708;10.900;2022-12-07T04:01:44;98526.88;;;6.91;60.19
21433;BME280;18592;49.708;10.900;2022-12-07T04:03:52;98529.84;;;6.90;60.54
21433;BME280;18592;49.708;10.900;2022-12-07T04:05:54;98519.84;;;6.90;60.25
21433;BME280;18592;49.708;10.900;2022-12-07T04:07:56;98517.13;;;6.90;60.34
21433;BME280;18592;49.708;10.900;2022-12-07T04:09:58;98517.13;;;6.90;60.42
21433;BME280;18592;49.708;10.900;2022-12-07T04:11:59;98512.75;;;6.89;60.46
21433;BME280;18592;49.708;10.900;2022-12-07T04:14:04;98515.47;;;6.89;60.50
21433;BME280;18592;49.708;10.900;2022-12-07T04:16:21;98507.78;;;6.86;60.22
21433;BME280;18592;49.708;10.900;2022-12-07T04:18:23;98511.06;;;6.88;60.33
21433;BME280;18592;49.708;10.900;2022-12-07T04:20:24;98509.44;;;6.87;60.33
21433;BME280;18592;49.708;10.900;2022-12-07T04:22:26;98511.06;;;6.88;60.47
21433;BME280;18592;49.708;10.900;2022-12-07T04:24:31;98499.44;;;6.88;60.21
21433;BME280;18592;49.708;10.900;2022-12-07T04:26:36;98501.31;;;6.87;60.46
21433;BME280;18592;49.708;10.900;2022-12-07T04:28:38;98500.25;;;6.88;60.21
21433;BME280;18592;49.708;10.900;2022-12-07T04:30:40;98512.16;;;6.87;60.38
21433;BME280;18592;49.708;10.900;2022-12-07T04:32:43;98507.78;;;6.86;60.35
21433;BME280;18592;49.708;10.900;2022-12-07T04:34:44;98506.16;;;6.85;60.38
21433;BME280;18592;49.708;10.900;2022-12-07T04:36:47;98514.88;;;6.87;60.46
21433;BME280;18592;49.708;10.900;2022-12-07T04:38:49;98513.78;;;6.88;60.63
21433;BME280;18592;49.708;10.900;2022-12-07T04:40:50;98511.31;;;6.87;60.52
21433;BME280;18592;49.708;10.900;2022-12-07T04:42:52;98516.75;;;6.87;60.41
21433;BME280;18592;49.708;10.900;2022-12-07T04:44:54;98511.56;;;6.85;60.47
21433;BME280;18592;49.708;10.900;2022-12-07T04:46:56;98509.44;;;6.87;60.39
21433;BME280;18592;49.708;10.900;2022-12-07T04:48:58;98508.84;;;6.85;60.41
21433;BME280;18592;49.708;10.900;2022-12-07T04:51:02;98509.91;;;6.84;60.06
21433;BME280;18592;49.708;10.900;2022-12-07T04:53:04;98510.94;;;6.83;60.68
21433;BME280;18592;49.708;10.900;2022-12-07T04:55:06;98514.28;;;6.85;60.56
21433;BME280;18592;49.708;10.900;2022-12-07T04:57:08;98509.91;;;6.84;60.27
21433;BME280;18592;49.708;10.900;2022-12-07T04:59:13;98522.41;;;6.85;60.25
21433;BME280;18592;49.708;10.900;2022-12-07T05:01:17;98515.91;;;6.86;60.37
21433;BME280;18592;49.708;10.900;2022-12-07T05:03:18;98517.78;;;6.86;60.67
21433;BME280;18592;49.708;10.900;2022-12-07T05:05:20;98525.09;;;6.85;60.55
21433;BME280;18592;49.708;10.900;2022-12-07T05:07:22;98511.56;;;6.85;60.45
21433;BME280;18592;49.708;10.900;2022-12-07T05:09:24;98521.56;;;6.85;60.23
21433;BME280;18592;49.708;10.900;2022-12-07T05:11:25;98518.63;;;6.86;60.54
21433;BME280;18592;49.708;10.900;2022-12-07T05:13:39;98516.97;;;6.85;60.55
21433;BME280;18592;49.708;10.900;2022-12-07T05:15:41;98514.28;;;6.85;60.37
21433;BME280;18592;49.708;10.900;2022-12-07T05:17:45;98512.38;;;6.86;60.63
21433;BME280;18592;49.708;10.900;2022-12-07T05:19:46;98508.84;;;6.85;60.54
21433;BME280;18592;49.708;10.900;2022-12-07T05:21:48;98513.44;;;6.85;60.57
21433;BME280;18592;49.708;10.900;2022-12-07T05:23:50;98513.19;;;6.86;60.49
21433;BME280;18592;49.708;10.900;2022-12-07T05:25:52;98517.78;;;6.86;60.17
21433;BME280;18592;49.708;10.900;2022-12-07T05:27:55;98502.94;;;6.88;60.65
21433;BME280;18592;49.708;10.900;2022-12-07T05:29:56;98505.66;;;6.88;60.72
21433;BME280;18592;49.708;10.900;2022-12-07T05:31:58;98501.06;;;6.89;60.45
21433;BME280;18592;49.708;10.900;2022-12-07T05:34:00;98499.19;;;6.89;60.44
21433;BME280;18592;49.708;10.900;2022-12-07T05:36:02;98506.50;;;6.89;60.61
21433;BME280;18592;49.708;10.900;2022-12-07T05:38:06;98504.03;;;6.87;60.55
21433;BME280;18592;49.708;10.900;2022-12-07T05:40:12;98493.78;;;6.89;60.64
21433;BME280;18592;49.708;10.900;2022-12-07T05:42:13;98507.09;;;6.91;60.56
21433;BME280;18592;49.708;10.900;2022-12-07T05:44:15;98511.06;;;6.88;60.90
21433;BME280;18592;49.708;10.900;2022-12-07T05:46:17;98513.78;;;6.88;60.52
21433;BME280;18592;49.708;10.900;2022-12-07T05:48:22;98508.63;;;6.87;60.55
21433;BME280;18592;49.708;10.900;2022-12-07T05:50:27;98510.28;;;6.88;60.54
21433;BME280;18592;49.708;10.900;2022-12-07T05:52:38;98510.28;;;6.88;60.37
21433;BME280;18592;49.708;10.900;2022-12-07T05:54:42;98507.31;;;6.89;60.45
21433;BME280;18592;49.708;10.900;2022-12-07T05:56:44;98509.00;;;6.90;60.60
21433;BME280;18592;49.708;10.900;2022-12-07T05:58:46;98507.31;;;6.89;60.37
21433;BME280;18592;49.708;10.900;2022-12-07T06:01:07;98504.03;;;6.87;60.56
21433;BME280;18592;49.708;10.900;2022-12-07T06:03:08;98500.25;;;6.88;60.51
21433;BME280;18592;49.708;10.900;2022-12-07T06:05:10;98506.50;;;6.89;60.58
21433;BME280;18592;49.708;10.900;2022-12-07T06:07:14;98505.91;;;6.87;60.59
21433;BME280;18592;49.708;10.900;2022-12-07T06:09:21;98502.16;;;6.88;60.72
21433;BME280;18592;49.708;10.900;2022-12-07T06:11:23;98500.47;;;6.87;60.54
21433;BME280;18592;49.708;10.900;2022-12-07T06:13:43;98497.78;;;6.87;60.50
21433;BME280;18592;49.708;10.900;2022-12-07T06:15:47;98502.34;;;6.86;60.53
21433;BME280;18592;49.708;10.900;2022-12-07T06:17:49;98504.88;;;6.88;60.65
21433;BME280;18592;49.708;10.900;2022-12-07T06:19:53;98506.28;;;6.90;60.80
21433;BME280;18592;49.708;10.900;2022-12-07T06:21:54;98504.88;;;6.88;60.56
21433;BME280;18592;49.708;10.900;2022-12-07T06:23:56;98496.72;;;6.88;60.41
21433;BME280;18592;49.708;10.900;2022-12-07T06:25:58;98504.63;;;6.89;60.36
21433;BME280;18592;49.708;10.900;2022-12-07T06:28:02;98499.19;;;6.89;60.46
21433;BME280;18592;49.708;10.900;2022-12-07T06:30:05;98505.44;;;6.90;60.53
21433;BME280;18592;49.708;10.900;2022-12-07T06:32:11;98505.44;;;6.90;60.48
21433;BME280;18592;49.708;10.900;2022-12-07T06:34:16;98510.88;;;6.90;60.45
21433;BME280;18592;49.708;10.900;2022-12-07T06:36:17;98510.63;;;6.91;60.51
21433;BME280;18592;49.708;10.900;2022-12-07T06:38:27;98518.75;;;6.91;60.89
21433;BME280;18592;49.708;10.900;2022-12-07T06:40:29;98511.22;;;6.93;60.56
21433;BME280;18592;49.708;10.900;2022-12-07T06:42:30;98510.19;;;6.94;60.36
21433;BME280;18592;49.708;10.900;2022-12-07T06:44:33;98511.47;;;6.92;60.74
21433;BME280;18592;49.708;10.900;2022-12-07T06:46:35;98499.78;;;6.91;60.51
21433;BME280;18592;49.708;10.900;2022-12-07T06:48:37;98506.88;;;6.92;60.53
21433;BME280;18592;49.708;10.900;2022-12-07T06:50:38;98512.88;;;6.94;60.73
21433;BME280;18592;49.708;10.900;2022-12-07T06:52:40;98499.34;;;6.94;60.44
21433;BME280;18592;49.708;10.900;2022-12-07T06:54:41;98509.72;;;6.97;60.67
21433;BME280;18592;49.708;10.900;2022-12-07T06:56:43;98508.91;;;6.97;60.71
21433;BME280;18592;49.708;10.900;2022-12-07T06:58:45;98512.06;;;6.94;60.48
21433;BME280;18592;49.708;10.900;2022-12-07T07:00:48;98521.59;;;6.96;60.58
21433;BME280;18592;49.708;10.900;2022-12-07T07:02:50;98514.31;;;6.97;60.52
21433;BME280;18592;49.708;10.900;2022-12-07T07:04:52;98525.16;;;6.97;60.50
21433;BME280;18592;49.708;10.900;2022-12-07T07:06:54;98527.03;;;6.96;60.34
21433;BME280;18592;49.708;10.900;2022-12-07T07:09:00;98516.78;;;6.98;60.60
21433;BME280;18592;49.708;10.900;2022-12-07T07:11:02;98516.19;;;6.96;60.63
21433;BME280;18592;49.708;10.900;2022-12-07T07:13:04;98523.03;;;6.99;60.59
21433;BME280;18592;49.708;10.900;2022-12-07T07:15:12;98523.28;;;6.97;60.68
21433;BME280;18592;49.708;10.900;2022-12-07T07:17:13;98523.88;;;6.99;60.62
21433;BME280;18592;49.708;10.900;2022-12-07T07:19:15;98518.44;;;6.99;60.61
21433;BME280;18592;49.708;10.900;2022-12-07T07:21:16;98523.88;;;6.99;60.50
21433;BME280;18592;49.708;10.900;2022-12-07T07:23:19;98525.75;;;6.99;60.76
21433;BME280;18592;49.708;10.900;2022-12-07T07:25:20;98524.47;;;7.01;60.53
21433;BME280;18592;49.708;10.900;2022-12-07T07:27:22;98525.88;;;7.04;60.59
21433;BME280;18592;49.708;10.900;2022-12-07T07:29:23;98524.25;;;7.03;60.81
21433;BME280;18592;49.708;10.900;2022-12-07T07:31:25;98519.41;;;7.05;60.54
21433;BME280;18592;49.708;10.900;2022-12-07T07:33:30;98520.25;;;7.06;60.64
21433;BME280;18592;49.708;10.900;2022-12-07T07:35:33;98526.25;;;7.08;60.61
21433;BME280;18592;49.708;10.900;2022-12-07T07:37:35;98520.25;;;7.06;60.53
21433;BME280;18592;49.708;10.900;2022-12-07T07:39:36;98526.25;;;7.08;60.63
21433;BME280;18592;49.708;10.900;2022-12-07T07:41:41;98531.00;;;7.12;60.97
21433;BME280;18592;49.708;10.900;2022-12-07T07:43:47;98523.09;;;7.11;60.44
21433;BME280;18592;49.708;10.900;2022-12-07T07:45:49;98521.81;;;7.13;60.57
21433;BME280;18592;49.708;10.900;2022-12-07T07:47:51;98524.72;;;7.12;60.51
21433;BME280;18592;49.708;10.900;2022-12-07T07:49:52;98522.03;;;7.12;60.47
21433;BME280;18592;49.708;10.900;2022-12-07T07:51:54;98523.44;;;7.14;60.70
21433;BME280;18592;49.708;10.900;2022-12-07T07:53:56;98522.41;;;7.15;60.65
21433;BME280;18592;49.708;10.900;2022-12-07T07:55:58;98527.00;;;7.15;60.52
21433;BME280;18592;49.708;10.900;2022-12-07T07:58:00;98522.41;;;7.15;61.03
21433;BME280;18592;49.708;10.900;2022-12-07T08:00:08;98522.41;;;7.15;60.57
21433;BME280;18592;49.708;10.900;2022-12-07T08:02:16;98516.53;;;7.18;60.63
21433;BME280;18592;49.708;10.900;2022-12-07T08:04:19;98527.38;;;7.18;60.64
21433;BME280;18592;49.708;10.900;2022-12-07T08:06:20;98527.38;;;7.18;60.35
21433;BME280;18592;49.708;10.900;2022-12-07T08:08:22;98522.16;;;7.17;60.62
21433;BME280;18592;49.708;10.900;2022-12-07T08:10:25;98526.53;;;7.18;60.67
21433;BME280;18592;49.708;10.900;2022-12-07T08:12:27;98532.78;;;7.18;60.81
21433;BME280;18592;49.708;10.900;2022-12-07T08:14:29;98536.31;;;7.19;60.47
21433;BME280;18592;49.708;10.900;2022-12-07T08:16:30;98530.66;;;7.20;60.45
21433;BME280;18592;49.708;10.900;2022-12-07T08:18:42;98536.94;;;7.21;60.38
21433;BME280;18592;49.708;10.900;2022-12-07T08:20:44;98539.41;;;7.22;60.52
21433;BME280;18592;49.708;10.900;2022-12-07T08:22:46;98540.22;;;7.23;60.69
21433;BME280;18592;49.708;10.900;2022-12-07T08:24:47;98532.09;;;7.23;60.60
21433;BME280;18592;49.708;10.900;2022-12-07T08:26:49;98530.44;;;7.22;60.61
21433;BME280;18592;49.708;10.900;2022-12-07T08:28:52;98540.81;;;7.25;60.79
21433;BME280;18592;49.708;10.900;2022-12-07T08:31:06;98542.69;;;7.24;60.91
21433;BME280;18592;49.708;10.900;2022-12-07T08:33:09;98546.00;;;7.26;60.65
21433;BME280;18592;49.708;10.900;2022-12-07T08:35:12;98551.81;;;7.30;60.73
21433;BME280;18592;49.708;10.900;2022-12-07T08:37:14;98545.53;;;7.29;60.71
21433;BME280;18592;49.708;10.900;2022-12-07T08:39:16;98546.13;;;7.31;60.60
21433;BME280;18592;49.708;10.900;2022-12-07T08:41:32;98540.97;;;7.30;60.74
21433;BME280;18592;49.708;10.900;2022-12-07T08:43:35;98544.25;;;7.32;60.74
21433;BME280;18592;49.708;10.900;2022-12-07T08:45:39;98541.34;;;7.33;60.99
21433;BME280;18592;49.708;10.900;2022-12-07T08:47:48;98549.47;;;7.33;60.68
21433;BME280;18592;49.708;10.900;2022-12-07T08:49:51;98552.97;;;7.34;60.89
21433;BME280;18592;49.708;10.900;2022-12-07T08:51:55;98542.50;;;7.37;60.81
21433;BME280;18592;49.708;10.900;2022-12-07T08:53:58;98544.38;;;7.37;60.75
21433;BME280;18592;49.708;10.900;2022-12-07T08:56:04;98545.22;;;7.37;60.88
21433;BME280;18592;49.708;10.900;2022-12-07T08:58:08;98548.53;;;7.39;61.03
21433;BME280;18592;49.708;10.900;2022-12-07T09:00:15;98547.25;;;7.42;60.80
21433;BME280;18592;49.708;10.900;2022-12-07T09:02:25;98547.81;;;7.44;60.88
21433;BME280;18592;49.708;10.900;2022-12-07T09:04:27;98543.25;;;7.44;60.75
21433;BME280;18592;49.708;10.900;2022-12-07T09:06:29;98548.66;;;7.44;60.84
21433;BME280;18592;49.708;10.900;2022-12-07T09:08:37;98547.38;;;7.47;60.85
21433;BME280;18592;49.708;10.900;2022-12-07T09:10:43;98543.63;;;7.48;60.73
21433;BME280;18592;49.708;10.900;2022-12-07T09:12:45;98548.78;;;7.49;60.72
21433;BME280;18592;49.708;10.900;2022-12-07T09:14:47;98549.03;;;7.48;60.87
21433;BME280;18592;49.708;10.900;2022-12-07T09:16:49;98547.75;;;7.50;61.32
21433;BME280;18592;49.708;10.900;2022-12-07T09:18:50;98558.94;;;7.54;61.01
21433;BME280;18592;49.708;10.900;2022-12-07T09:20:52;98555.19;;;7.55;60.74
21433;BME280;18592;49.708;10.900;2022-12-07T09:22:57;98554.34;;;7.54;60.86
21433;BME280;18592;49.708;10.900;2022-12-07T09:25:02;98556.84;;;7.56;60.78
21433;BME280;18592;49.708;10.900;2022-12-07T09:27:04;98558.47;;;7.57;60.66
21433;BME280;18592;49.708;10.900;2022-12-07T09:29:12;98557.44;;;7.58;60.92
21433;BME280;18592;49.708;10.900;2022-12-07T09:31:14;98553.06;;;7.57;60.74
21433;BME280;18592;49.708;10.900;2022-12-07T09:33:24;98559.69;;;7.61;60.76
21433;BME280;18592;49.708;10.900;2022-12-07T09:35:27;98551.56;;;7.61;60.94
21433;BME280;18592;49.708;10.900;2022-12-07T09:37:29;98554.84;;;7.63;60.93
21433;BME280;18592;49.708;10.900;2022-12-07T09:39:33;98554.03;;;7.62;60.81
21433;BME280;18592;49.708;10.900;2022-12-07T09:41:38;98555.06;;;7.61;60.77
21433;BME280;18592;49.708;10.900;2022-12-07T09:43:44;98554.03;;;7.62;60.93
21433;BME280;18592;49.708;10.900;2022-12-07T09:45:48;98545.88;;;7.62;60.88
21433;BME280;18592;49.708;10.900;2022-12-07T09:47:52;98548.97;;;7.66;60.88
21433;BME280;18592;49.708;10.900;2022-12-07T09:50:00;98540.34;;;7.69;60.75
21433;BME280;18592;49.708;10.900;2022-12-07T09:52:18;98540.34;;;7.69;60.86
21433;BME280;18592;49.708;10.900;2022-12-07T09:54:22;98550.16;;;7.70;60.91
21433;BME280;18592;49.708;10.900;2022-12-07T09:56:23;98542.84;;;7.71;60.89
21433;BME280;18592;49.708;10.900;2022-12-07T09:58:27;98546.13;;;7.73;60.79
21433;BME280;18592;49.708;10.900;2022-12-07T10:00:43;98534.00;;;7.75;60.98
21433;BME280;18592;49.708;10.900;2022-12-07T10:03:02;98540.00;;;7.77;60.76
21433;BME280;18592;49.708;10.900;2022-12-07T10:05:13;98540.84;;;7.78;60.63
21433;BME280;18592;49.708;10.900;2022-12-07T10:07:24;98533.53;;;7.78;60.80
21433;BME280;18592;49.708;10.900;2022-12-07T10:09:26;98536.00;;;7.80;61.00
21433;BME280;18592;49.708;10.900;2022-12-07T10:11:30;98541.22;;;7.81;61.14
21433;BME280;18592;49.708;10.900;2022-12-07T10:13:39;98534.72;;;7.82;60.78
21433;BME280;18592;49.708;10.900;2022-12-07T10:15:50;98533.66;;;7.83;60.97
21433;BME280;18592;49.708;10.900;2022-12-07T10:17:53;98535.53;;;7.83;61.05
21433;BME280;18592;49.708;10.900;2022-12-07T10:22:18;98524.47;;;7.84;61.03
21433;BME280;18592;49.708;10.900;2022-12-07T10:24:21;98523.41;;;7.85;61.02
21433;BME280;18592;49.708;10.900;2022-12-07T10:26:30;98527.78;;;7.86;60.98
21433;BME280;18592;49.708;10.900;2022-12-07T10:28:35;98525.66;;;7.88;61.02
21433;BME280;18592;49.708;10.900;2022-12-07T10:30:57;98517.75;;;7.87;61.19
21433;BME280;18592;49.708;10.900;2022-12-07T10:35:30;98527.91;;;7.91;61.11
21433;BME280;18592;49.708;10.900;2022-12-07T10:37:40;98518.69;;;7.92;61.03
21433;BME280;18592;49.708;10.900;2022-12-07T10:39:47;98513.88;;;7.94;61.05
21433;BME280;18592;49.708;10.900;2022-12-07T10:42:00;98516.56;;;7.94;61.17
21433;BME280;18592;49.708;10.900;2022-12-07T10:44:03;98518.00;;;7.97;61.30
21433;BME280;18592;49.708;10.900;2022-12-07T10:46:40;98514.44;;;7.96;60.97
21433;BME280;18592;49.708;10.900;2022-12-07T10:51:19;98516.09;;;7.97;61.22
21433;BME280;18592;49.708;10.900;2022-12-07T10:55:51;98508.06;;;8.02;61.12
21433;BME280;18592;49.708;10.900;2022-12-07T10:58:16;98511.13;;;8.06;60.96
21433;BME280;18592;49.708;10.900;2022-12-07T11:00:24;98510.88;;;8.07;60.91
21433;BME280;18592;49.708;10.900;2022-12-07T11:02:36;98508.19;;;8.07;61.25
21433;BME280;18592;49.708;10.900;2022-12-07T11:04:55;98516.31;;;8.07;61.23
21433;BME280;18592;49.708;10.900;2022-12-07T11:07:37;98505.59;;;8.12;61.10
21433;BME280;18592;49.708;10.900;2022-12-07T11:09:58;98505.84;;;8.11;61.17
21433;BME280;18592;49.708;10.900;2022-12-07T11:12:34;98499.34;;;8.12;61.06
21433;BME280;18592;49.708;10.900;2022-12-07T11:17:09;98496.13;;;8.15;60.86
21433;BME280;18592;49.708;10.900;2022-12-07T11:19:46;98492.63;;;8.14;61.05
21433;BME280;18592;49.708;10.900;2022-12-07T11:22:02;98489.41;;;8.17;60.91
21433;BME280;18592;49.708;10.900;2022-12-07T11:24:15;98487.78;;;8.16;60.89
21433;BME280;18592;49.708;10.900;2022-12-07T11:26:24;98483.75;;;8.19;60.75
21433;BME280;18592;49.708;10.900;2022-12-07T11:33:30;98479.63;;;8.16;61.26
21433;BME280;18592;49.708;10.900;2022-12-07T11:35:47;98474.78;;;8.18;61.16
21433;BME280;18592;49.708;10.900;2022-12-07T11:38:00;98481.88;;;8.19;61.03
21433;BME280;18592;49.708;10.900;2022-12-07T11:40:05;98473.00;;;8.24;61.14
21433;BME280;18592;49.708;10.900;2022-12-07T11:42:22;98474.91;;;8.23;61.10